Time;durP1;ratioP1;P1;durP2;ratioP2;P2;SDS_P1;SDS_P2;PMS_P1;PMS_P2;Temp;Humidity;BMP_temperature;BMP_pressure;BME280_temperature;BME280_humidity;BME280_pressure;Samples;Min_cycle;Max_cycle;Signal;HPM_P1;HPM_P2
2021/04/26 00:02:00;;;;;;;15.40;8.13;;;;;;;;;;754187;186;618588;-69
2021/04/26 00:04:26;;;;;;;11.40;6.57;;;;;;;;;;735735;188;629949;-69
2021/04/26 00:06:51;;;;;;;11.20;7.10;;;;;;;;;;765719;182;622286;-68
2021/04/26 00:09:17;;;;;;;9.20;5.70;;;;;;;;;;761918;182;629187;-68
2021/04/26 00:11:43;;;;;;;9.90;5.10;;;;;;;;;;759022;182;629609;-69
2021/04/26 00:14:09;;;;;;;10.00;5.83;;;;;;;;;;753318;182;912533;-69
2021/04/26 00:16:35;;;;;;;12.40;5.10;;;;;;;;;;761170;182;915526;-69
2021/04/26 00:19:01;;;;;;;12.10;6.07;;;;;;;;;;753678;182;907815;-70
2021/04/26 00:21:27;;;;;;;8.30;5.00;;;;;;;;;;754439;182;919447;-69
2021/04/26 00:23:53;;;;;;;9.55;5.78;;;;;;;;;;750359;182;1547820;-71
2021/04/26 00:26:18;;;;;;;10.50;5.50;;;;;;;;;;756049;184;918495;-69
2021/04/26 00:28:44;;;;;;;9.13;5.53;;;;;;;;;;745544;182;919218;-69
2021/04/26 00:31:10;;;;;;;11.73;6.73;;;;;;;;;;739463;186;918860;-70
2021/04/26 00:33:36;;;;;;;10.77;5.07;;;;;;;;;;750395;186;919245;-72
2021/04/26 00:36:02;;;;;;;11.50;5.80;;;;;;;;;;747787;182;919445;-69
2021/04/26 00:38:28;;;;;;;7.50;5.80;;;;;;;;;;755643;182;919302;-70
2021/04/26 00:40:53;;;;;;;6.47;3.93;;;;;;;;;;758101;182;919159;-70
2021/04/26 00:43:19;;;;;;;7.20;4.30;;;;;;;;;;758192;182;918587;-71
2021/04/26 00:45:45;;;;;;;7.07;4.40;;;;;;;;;;756613;182;918228;-71
2021/04/26 00:48:11;;;;;;;7.70;5.00;;;;;;;;;;761446;182;931478;-70
2021/04/26 00:50:38;;;;;;;7.67;4.83;;;;;;;;;;738403;182;3531088;-70
2021/04/26 00:53:03;;;;;;;4.85;3.85;;;;;;;;;;754188;182;918300;-71
2021/04/26 00:55:28;;;;;;;8.40;4.73;;;;;;;;;;749647;182;1019642;-72
2021/04/26 00:57:54;;;;;;;11.45;4.47;;;;;;;;;;751704;182;919577;-71
2021/04/26 01:00:21;;;;;;;9.83;5.10;;;;;;;;;;752129;182;918018;-73
2021/04/26 01:02:46;;;;;;;7.27;4.70;;;;;;;;;;743421;186;815379;-71
2021/04/26 01:05:13;;;;;;;8.97;4.93;;;;;;;;;;745131;186;673885;-73
2021/04/26 01:07:39;;;;;;;6.70;5.23;;;;;;;;;;721091;190;623786;-72
2021/04/26 01:10:05;;;;;;;9.37;4.50;;;;;;;;;;745071;186;681933;-73
2021/04/26 01:12:42;;;;;;;8.33;3.60;;;;;;;;;;761751;182;628079;-71
2021/04/26 01:15:09;;;;;;;8.10;4.33;;;;;;;;;;733036;187;919071;-75
2021/04/26 01:17:35;;;;;;;8.27;4.63;;;;;;;;;;743074;186;914387;-72
2021/04/26 01:20:05;;;;;;;6.73;4.93;;;;;;;;;;745246;185;919216;-73
2021/04/26 01:22:50;;;;;;;7.40;4.43;;;;;;;;;;739920;186;973035;-72
2021/04/26 01:25:15;;;;;;;7.37;5.00;;;;;;;;;;748867;182;915201;-72
2021/04/26 01:27:44;;;;;;;9.93;5.60;;;;;;;;;;747235;185;911550;-72
2021/04/26 01:30:25;;;;;;;10.67;6.13;;;;;;;;;;746294;185;915949;-73
2021/04/26 01:32:51;;;;;;;7.77;6.17;;;;;;;;;;735733;187;892373;-70
2021/04/26 01:35:16;;;;;;;7.83;5.57;;;;;;;;;;747420;185;919176;-71
2021/04/26 01:37:42;;;;;;;7.30;4.93;;;;;;;;;;750903;185;919722;-71
2021/04/26 01:40:09;;;;;;;11.47;5.57;;;;;;;;;;749977;182;918175;-71
2021/04/26 01:42:34;;;;;;;10.27;5.87;;;;;;;;;;752014;182;919138;-70
2021/04/26 01:45:01;;;;;;;8.13;5.53;;;;;;;;;;762492;182;918875;-71
2021/04/26 01:47:27;;;;;;;7.43;5.60;;;;;;;;;;751922;181;917483;-70
2021/04/26 01:49:53;;;;;;;9.83;5.80;;;;;;;;;;755183;182;919928;-71
2021/04/26 01:52:19;;;;;;;11.67;6.63;;;;;;;;;;754923;182;920121;-70
2021/04/26 01:54:44;;;;;;;11.13;5.90;;;;;;;;;;755723;185;919009;-71
2021/04/26 01:57:10;;;;;;;12.70;7.80;;;;;;;;;;745354;185;919057;-70
2021/04/26 01:59:37;;;;;;;13.80;7.20;;;;;;;;;;761242;182;919424;-71
2021/04/26 02:02:02;;;;;;;10.40;6.07;;;;;;;;;;759778;182;974421;-70
2021/04/26 02:04:28;;;;;;;16.30;6.20;;;;;;;;;;755289;182;918999;-70
2021/04/26 02:06:54;;;;;;;13.23;7.53;;;;;;;;;;757338;182;919647;-71
2021/04/26 02:09:20;;;;;;;13.23;7.40;;;;;;;;;;755410;181;932891;-71
2021/04/26 02:11:45;;;;;;;12.20;7.63;;;;;;;;;;758732;182;620247;-71
2021/04/26 02:14:11;;;;;;;12.90;6.33;;;;;;;;;;760524;182;630647;-71
2021/04/26 02:16:37;;;;;;;14.47;8.20;;;;;;;;;;756840;182;919639;-70
2021/04/26 02:19:03;;;;;;;12.47;6.60;;;;;;;;;;740056;184;920277;-71
2021/04/26 02:21:29;;;;;;;12.20;5.93;;;;;;;;;;746962;185;919256;-71
2021/04/26 02:23:55;;;;;;;13.27;8.63;;;;;;;;;;750577;181;919888;-71
2021/04/26 02:26:21;;;;;;;9.60;5.57;;;;;;;;;;760425;183;918525;-70
2021/04/26 02:28:46;;;;;;;12.83;6.50;;;;;;;;;;751557;181;917952;-70
2021/04/26 02:31:13;;;;;;;10.13;5.93;;;;;;;;;;759870;182;918220;-71
2021/04/26 02:33:39;;;;;;;20.67;7.57;;;;;;;;;;750145;182;915164;-71
2021/04/26 02:36:05;;;;;;;12.17;6.83;;;;;;;;;;745131;186;919086;-71
2021/04/26 02:38:31;;;;;;;9.13;5.90;;;;;;;;;;746810;182;1200476;-71
2021/04/26 02:40:57;;;;;;;9.70;6.13;;;;;;;;;;759218;182;620971;-70
2021/04/26 02:43:27;;;;;;;9.10;6.43;;;;;;;;;;760691;182;627601;-70
2021/04/26 02:45:53;;;;;;;10.93;6.47;;;;;;;;;;746107;182;639855;-70
2021/04/26 02:48:19;;;;;;;11.60;6.60;;;;;;;;;;751769;183;633746;-70
2021/04/26 02:50:44;;;;;;;9.63;6.10;;;;;;;;;;748139;185;624536;-70
2021/04/26 02:53:10;;;;;;;14.50;6.93;;;;;;;;;;742605;186;917783;-70
2021/04/26 02:55:36;;;;;;;9.20;6.07;;;;;;;;;;747586;182;919651;-70
2021/04/26 02:58:02;;;;;;;15.90;6.37;;;;;;;;;;759563;182;919210;-71
2021/04/26 03:00:28;;;;;;;7.77;5.63;;;;;;;;;;751998;182;918894;-70
2021/04/26 03:02:54;;;;;;;8.40;6.30;;;;;;;;;;752690;182;918720;-70
2021/04/26 03:05:19;;;;;;;10.07;5.23;;;;;;;;;;751535;182;919480;-69
2021/04/26 03:07:45;;;;;;;7.07;6.07;;;;;;;;;;753062;183;919726;-70
2021/04/26 03:10:11;;;;;;;8.30;5.80;;;;;;;;;;752465;182;620969;-70
2021/04/26 03:12:38;;;;;;;12.63;5.50;;;;;;;;;;746870;186;618449;-70
2021/04/26 03:15:05;;;;;;;11.10;7.30;;;;;;;;;;746463;187;618863;-71
2021/04/26 03:17:31;;;;;;;11.87;5.83;;;;;;;;;;752516;185;631544;-70
2021/04/26 03:19:58;;;;;;;10.30;6.73;;;;;;;;;;747278;185;645477;-71
2021/04/26 03:22:23;;;;;;;11.23;6.10;;;;;;;;;;751026;185;1128954;-70
2021/04/26 03:24:49;;;;;;;11.90;6.60;;;;;;;;;;742375;185;920855;-70
2021/04/26 03:27:15;;;;;;;11.20;6.67;;;;;;;;;;747689;182;1709174;-70
2021/04/26 03:29:41;;;;;;;16.93;7.43;;;;;;;;;;754314;182;920672;-69
2021/04/26 03:32:07;;;;;;;10.47;6.30;;;;;;;;;;761535;182;919500;-70
2021/04/26 03:34:33;;;;;;;12.57;6.20;;;;;;;;;;749484;182;918961;-70
2021/04/26 03:36:59;;;;;;;14.17;6.90;;;;;;;;;;739063;186;1018693;-69
2021/04/26 03:39:24;;;;;;;10.50;7.13;;;;;;;;;;750830;185;912922;-71
2021/04/26 03:41:50;;;;;;;12.33;6.47;;;;;;;;;;743348;186;914152;-70
2021/04/26 03:44:16;;;;;;;13.73;6.18;;;;;;;;;;715133;190;913062;-70
2021/04/26 03:46:43;;;;;;;9.60;5.80;;;;;;;;;;743444;186;919866;-70
2021/04/26 03:49:09;;;;;;;8.55;5.47;;;;;;;;;;746086;182;915475;-70
2021/04/26 03:51:34;;;;;;;12.37;6.27;;;;;;;;;;739947;186;921350;-70
2021/04/26 03:54:00;;;;;;;11.20;6.83;;;;;;;;;;741277;186;923246;-69
2021/04/26 03:56:26;;;;;;;36.63;17.93;;;;;;;;;;741722;185;920166;-70
2021/04/26 03:58:52;;;;;;;11.57;6.60;;;;;;;;;;757381;182;921247;-70
2021/04/26 04:01:18;;;;;;;10.50;6.60;;;;;;;;;;753546;182;917446;-70
2021/04/26 04:03:44;;;;;;;12.43;7.28;;;;;;;;;;758127;182;1019938;-70
2021/04/26 04:06:09;;;;;;;15.33;7.40;;;;;;;;;;755929;182;1021224;-70
2021/04/26 04:08:36;;;;;;;20.73;12.30;;;;;;;;;;747166;182;2476038;-70
2021/04/26 04:11:01;;;;;;;21.35;13.60;;;;;;;;;;759353;182;919437;-70
2021/04/26 04:13:27;;;;;;;12.30;9.43;;;;;;;;;;753745;182;918703;-70
2021/04/26 04:15:53;;;;;;;20.55;10.98;;;;;;;;;;757681;182;921392;-70
2021/04/26 04:18:19;;;;;;;26.17;12.90;;;;;;;;;;758741;181;915004;-70
2021/04/26 04:20:45;;;;;;;21.03;11.80;;;;;;;;;;757013;181;1021717;-71
2021/04/26 04:23:11;;;;;;;16.33;10.53;;;;;;;;;;752205;180;919518;-70
2021/04/26 04:25:36;;;;;;;17.60;10.30;;;;;;;;;;753678;181;919852;-70
2021/04/26 04:28:02;;;;;;;16.07;9.47;;;;;;;;;;760813;182;920069;-70
2021/04/26 04:30:28;;;;;;;14.07;9.77;;;;;;;;;;758856;182;889091;-69
2021/04/26 04:32:54;;;;;;;15.00;9.13;;;;;;;;;;754409;181;919077;-69
2021/04/26 04:35:20;;;;;;;15.27;10.80;;;;;;;;;;763397;182;918953;-70
2021/04/26 04:37:46;;;;;;;20.67;14.27;;;;;;;;;;755133;182;919157;-69
2021/04/26 04:40:12;;;;;;;34.70;19.43;;;;;;;;;;755076;182;919586;-70
2021/04/26 04:42:38;;;;;;;26.00;13.77;;;;;;;;;;762353;182;918841;-69
2021/04/26 04:45:04;;;;;;;20.33;15.47;;;;;;;;;;750573;182;919611;-70
2021/04/26 04:47:30;;;;;;;14.67;11.40;;;;;;;;;;764828;182;919568;-70
2021/04/26 04:49:55;;;;;;;21.63;13.17;;;;;;;;;;738402;186;915840;-69
2021/04/26 04:52:21;;;;;;;28.10;16.33;;;;;;;;;;723671;191;916401;-69
2021/04/26 04:54:47;;;;;;;32.17;21.47;;;;;;;;;;733769;185;1871735;-70
2021/04/26 04:57:13;;;;;;;30.57;17.83;;;;;;;;;;740199;184;1033064;-69
2021/04/26 04:59:39;;;;;;;29.10;16.90;;;;;;;;;;752172;182;918377;-70
2021/04/26 05:02:05;;;;;;;17.00;12.00;;;;;;;;;;756272;181;919849;-69
2021/04/26 05:04:31;;;;;;;23.63;12.63;;;;;;;;;;751912;182;919038;-69
2021/04/26 05:06:56;;;;;;;23.93;10.83;;;;;;;;;;761684;183;920518;-70
2021/04/26 05:09:22;;;;;;;57.53;25.87;;;;;;;;;;754345;181;920080;-71
2021/04/26 05:11:48;;;;;;;104.77;45.80;;;;;;;;;;756792;182;916805;-73
2021/04/26 05:14:15;;;;;;;38.22;20.95;;;;;;;;;;763028;182;651195;-70
2021/04/26 05:16:41;;;;;;;49.33;23.90;;;;;;;;;;756302;182;906767;-72
2021/04/26 05:19:06;;;;;;;29.40;17.57;;;;;;;;;;758049;182;918494;-73
2021/04/26 05:21:32;;;;;;;27.90;15.40;;;;;;;;;;752994;182;919172;-72
2021/04/26 05:23:58;;;;;;;18.97;11.70;;;;;;;;;;757258;182;919276;-73
2021/04/26 05:26:25;;;;;;;18.27;10.00;;;;;;;;;;751593;182;1034124;-72
2021/04/26 05:28:51;;;;;;;15.93;10.43;;;;;;;;;;752460;183;918896;-72
2021/04/26 05:31:16;;;;;;;15.80;7.50;;;;;;;;;;757796;181;992744;-72
2021/04/26 05:33:42;;;;;;;12.50;8.85;;;;;;;;;;757913;180;919336;-71
2021/04/26 05:36:08;;;;;;;64.13;26.67;;;;;;;;;;754947;182;918790;-71
2021/04/26 05:38:34;;;;;;;14.48;8.77;;;;;;;;;;758502;182;918839;-70
2021/04/26 05:41:00;;;;;;;14.90;7.80;;;;;;;;;;755352;182;919431;-69
2021/04/26 05:43:26;;;;;;;46.67;29.23;;;;;;;;;;759416;182;920086;-70
2021/04/26 05:45:51;;;;;;;28.53;18.70;;;;;;;;;;754757;182;920427;-69
2021/04/26 05:48:17;;;;;;;16.07;9.47;;;;;;;;;;756628;182;926936;-69
2021/04/26 05:50:44;;;;;;;12.75;8.52;;;;;;;;;;739128;185;919005;-69
2021/04/26 05:53:10;;;;;;;13.67;7.07;;;;;;;;;;738992;186;918887;-68
2021/04/26 05:55:36;;;;;;;12.40;7.00;;;;;;;;;;753359;182;917257;-66
2021/04/26 05:58:02;;;;;;;11.60;7.70;;;;;;;;;;751990;182;917896;-68
2021/04/26 06:00:28;;;;;;;9.47;6.93;;;;;;;;;;756239;182;916421;-68
2021/04/26 06:02:54;;;;;;;15.73;7.70;;;;;;;;;;757529;181;1144095;-68
2021/04/26 06:05:19;;;;;;;11.63;6.53;;;;;;;;;;743300;185;918798;-67
2021/04/26 06:07:46;;;;;;;14.57;8.17;;;;;;;;;;741691;186;913356;-67
2021/04/26 06:10:11;;;;;;;10.13;6.57;;;;;;;;;;748799;185;919549;-67
2021/04/26 06:12:37;;;;;;;9.73;5.60;;;;;;;;;;744655;183;917679;-67
2021/04/26 06:15:03;;;;;;;11.00;6.23;;;;;;;;;;744033;185;919497;-68
2021/04/26 06:17:29;;;;;;;8.13;5.30;;;;;;;;;;738848;186;922186;-67
2021/04/26 06:19:55;;;;;;;7.77;5.00;;;;;;;;;;755808;182;999875;-68
2021/04/26 06:22:21;;;;;;;11.83;5.57;;;;;;;;;;752872;182;1025556;-67
2021/04/26 06:24:47;;;;;;;10.53;4.73;;;;;;;;;;754603;182;898500;-67
2021/04/26 06:27:13;;;;;;;6.93;4.53;;;;;;;;;;745595;182;919255;-68
2021/04/26 06:29:38;;;;;;;5.80;3.87;;;;;;;;;;757165;181;919454;-67
2021/04/26 06:32:04;;;;;;;5.27;2.97;;;;;;;;;;758776;182;921870;-67
2021/04/26 06:34:30;;;;;;;8.23;4.10;;;;;;;;;;757990;182;905014;-67
2021/04/26 06:36:56;;;;;;;8.80;3.50;;;;;;;;;;753923;182;921245;-67
2021/04/26 06:39:23;;;;;;;7.30;3.50;;;;;;;;;;752537;183;944372;-67
2021/04/26 06:41:48;;;;;;;7.37;3.60;;;;;;;;;;756894;181;919242;-66
2021/04/26 06:44:14;;;;;;;6.43;3.20;;;;;;;;;;747779;182;2963824;-67
2021/04/26 06:46:39;;;;;;;4.60;3.47;;;;;;;;;;757681;182;916708;-67
2021/04/26 06:49:05;;;;;;;5.57;3.40;;;;;;;;;;753630;182;915046;-66
2021/04/26 06:51:31;;;;;;;5.97;3.57;;;;;;;;;;761885;182;893562;-66
2021/04/26 06:53:57;;;;;;;7.50;3.27;;;;;;;;;;750913;182;932941;-66
2021/04/26 06:56:23;;;;;;;5.83;3.33;;;;;;;;;;756399;182;919411;-66
2021/04/26 06:58:49;;;;;;;7.17;2.93;;;;;;;;;;758392;181;919621;-66
2021/04/26 07:01:16;;;;;;;6.33;2.90;;;;;;;;;;752291;182;1019988;-68
2021/04/26 07:03:41;;;;;;;5.00;4.60;;;;;;;;;;751426;182;919318;-67
2021/04/26 07:06:07;;;;;;;4.33;2.40;;;;;;;;;;754055;182;919764;-65
2021/04/26 07:08:33;;;;;;;3.72;1.50;;;;;;;;;;759276;182;921018;-66
2021/04/26 07:10:59;;;;;;;4.13;2.57;;;;;;;;;;749612;182;1148995;-68
2021/04/26 07:13:26;;;;;;;4.15;2.25;;;;;;;;;;754004;183;919798;-66
2021/04/26 07:15:51;;;;;;;3.90;1.70;;;;;;;;;;754974;182;919286;-68
2021/04/26 07:18:17;;;;;;;3.30;1.90;;;;;;;;;;753921;182;919507;-66
2021/04/26 07:20:42;;;;;;;5.40;2.30;;;;;;;;;;754560;182;936076;-67
2021/04/26 07:23:08;;;;;;;5.40;2.20;;;;;;;;;;759800;182;919199;-67
2021/04/26 07:25:34;;;;;;;4.00;2.20;;;;;;;;;;753061;181;919475;-67
2021/04/26 07:28:00;;;;;;;4.97;2.60;;;;;;;;;;743327;182;919066;-66
2021/04/26 07:30:26;;;;;;;7.65;2.72;;;;;;;;;;749763;182;919168;-66
2021/04/26 07:32:52;;;;;;;8.70;2.70;;;;;;;;;;756814;182;918989;-67
2021/04/26 07:35:18;;;;;;;7.03;3.30;;;;;;;;;;737284;185;1084103;-67
2021/04/26 07:37:44;;;;;;;7.83;2.63;;;;;;;;;;746168;186;919489;-67
2021/04/26 07:40:10;;;;;;;4.97;3.03;;;;;;;;;;748563;185;919212;-69
2021/04/26 07:42:35;;;;;;;4.03;2.10;;;;;;;;;;747044;182;919019;-68
2021/04/26 07:45:01;;;;;;;5.23;3.03;;;;;;;;;;753595;182;919658;-67
2021/04/26 07:47:27;;;;;;;6.27;2.60;;;;;;;;;;755670;182;1026748;-66
2021/04/26 07:49:53;;;;;;;4.10;2.90;;;;;;;;;;756230;182;918510;-67
2021/04/26 07:52:19;;;;;;;3.93;2.47;;;;;;;;;;751219;181;1806692;-69
2021/04/26 07:54:45;;;;;;;4.43;3.13;;;;;;;;;;752407;182;918281;-67
2021/04/26 07:57:10;;;;;;;5.00;2.63;;;;;;;;;;740519;186;918139;-66
2021/04/26 07:59:36;;;;;;;6.20;3.27;;;;;;;;;;744294;185;922455;-67
2021/04/26 08:02:02;;;;;;;7.62;3.08;;;;;;;;;;745653;186;919279;-66
2021/04/26 08:04:29;;;;;;;5.63;3.00;;;;;;;;;;759019;182;919025;-67
2021/04/26 08:06:54;;;;;;;3.50;1.80;;;;;;;;;;752891;182;1020252;-66
2021/04/26 08:09:20;;;;;;;4.00;2.77;;;;;;;;;;754988;182;918778;-67
2021/04/26 08:11:45;;;;;;;4.80;2.50;;;;;;;;;;761828;181;919412;-66
2021/04/26 08:14:11;;;;;;;3.67;2.00;;;;;;;;;;743946;185;919213;-67
2021/04/26 08:16:39;;;;;;;4.10;1.90;;;;;;;;;;731607;185;1166495;-68
2021/04/26 08:19:03;;;;;;;3.60;1.83;;;;;;;;;;746835;186;919447;-67
2021/04/26 08:21:29;;;;;;;4.13;2.30;;;;;;;;;;743248;185;919363;-68
2021/04/26 08:23:57;;;;;;;8.23;2.47;;;;;;;;;;748528;186;919475;-67
2021/04/26 08:26:21;;;;;;;4.20;2.40;;;;;;;;;;756329;182;1123899;-66
2021/04/26 08:28:46;;;;;;;5.83;2.43;;;;;;;;;;754082;182;918963;-67
2021/04/26 08:31:12;;;;;;;3.83;2.30;;;;;;;;;;742172;185;919302;-66
2021/04/26 08:33:40;;;;;;;4.90;2.23;;;;;;;;;;738896;186;919773;-67
2021/04/26 08:36:05;;;;;;;5.90;2.57;;;;;;;;;;750598;185;897790;-67
2021/04/26 08:38:31;;;;;;;3.67;1.90;;;;;;;;;;742260;184;927064;-67
2021/04/26 08:40:57;;;;;;;4.13;1.83;;;;;;;;;;745541;186;919377;-69
2021/04/26 08:43:23;;;;;;;9.40;2.10;;;;;;;;;;751700;184;916791;-67
2021/04/26 08:45:48;;;;;;;4.30;2.33;;;;;;;;;;740971;186;989417;-68
2021/04/26 08:48:14;;;;;;;2.80;1.80;;;;;;;;;;754215;182;918811;-67
2021/04/26 08:50:41;;;;;;;7.45;2.62;;;;;;;;;;760316;182;1021506;-67
2021/04/26 08:53:07;;;;;;;3.70;2.30;;;;;;;;;;750995;183;919496;-67
2021/04/26 08:55:33;;;;;;;4.12;2.12;;;;;;;;;;746497;183;921379;-68
2021/04/26 08:57:59;;;;;;;3.70;1.90;;;;;;;;;;754881;182;1186818;-68
2021/04/26 09:00:25;;;;;;;3.70;2.00;;;;;;;;;;757286;182;1124271;-67
2021/04/26 09:02:51;;;;;;;5.57;2.17;;;;;;;;;;752618;182;919060;-67
2021/04/26 09:05:22;;;;;;;3.22;2.10;;;;;;;;;;757967;178;1020593;-68
2021/04/26 09:07:48;;;;;;;3.50;2.23;;;;;;;;;;763117;182;917323;-67
2021/04/26 09:10:13;;;;;;;7.00;2.50;;;;;;;;;;754853;182;919534;-69
2021/04/26 09:12:39;;;;;;;4.20;2.30;;;;;;;;;;748476;184;1021517;-68
2021/04/26 09:15:05;;;;;;;4.00;1.93;;;;;;;;;;755770;182;920851;-67
2021/04/26 09:17:31;;;;;;;4.63;2.53;;;;;;;;;;759291;182;1131859;-67
2021/04/26 09:19:57;;;;;;;3.20;2.20;;;;;;;;;;754114;182;914593;-68
2021/04/26 09:22:29;;;;;;;4.37;2.33;;;;;;;;;;753472;184;913463;-67
2021/04/26 09:24:55;;;;;;;3.53;1.77;;;;;;;;;;756787;182;979860;-69
2021/04/26 09:27:21;;;;;;;6.63;2.37;;;;;;;;;;751082;182;918720;-68
2021/04/26 09:29:47;;;;;;;4.40;2.22;;;;;;;;;;755871;182;917680;-68
2021/04/26 09:32:13;;;;;;;4.97;3.60;;;;;;;;;;737592;186;917893;-68
2021/04/26 09:34:38;;;;;;;3.23;1.93;;;;;;;;;;747285;185;920111;-68
2021/04/26 09:37:04;;;;;;;6.10;2.40;;;;;;;;;;740623;185;928185;-68
2021/04/26 09:39:31;;;;;;;3.80;2.00;;;;;;;;;;751813;182;912403;-69
2021/04/26 09:41:57;;;;;;;5.47;2.00;;;;;;;;;;747200;184;916686;-66
2021/04/26 09:44:22;;;;;;;4.30;2.30;;;;;;;;;;743838;185;919371;-68
2021/04/26 09:46:50;;;;;;;3.60;2.03;;;;;;;;;;728809;188;918103;-68
2021/04/26 09:49:15;;;;;;;3.17;1.70;;;;;;;;;;747038;186;918144;-68
2021/04/26 09:51:41;;;;;;;4.07;2.60;;;;;;;;;;740188;185;918586;-68
2021/04/26 09:54:07;;;;;;;3.80;2.47;;;;;;;;;;741107;185;940954;-67
2021/04/26 09:56:36;;;;;;;6.45;2.60;;;;;;;;;;742229;185;919347;-67
2021/04/26 09:58:59;;;;;;;5.90;2.30;;;;;;;;;;746982;185;938527;-68
2021/04/26 10:01:25;;;;;;;4.83;2.30;;;;;;;;;;744763;185;918301;-67
2021/04/26 10:03:51;;;;;;;4.47;2.70;;;;;;;;;;742388;186;917758;-68
2021/04/26 10:06:17;;;;;;;4.03;2.33;;;;;;;;;;761266;182;960777;-68
2021/04/26 10:08:43;;;;;;;9.73;2.27;;;;;;;;;;735029;185;919701;-67
2021/04/26 10:11:09;;;;;;;4.03;2.45;;;;;;;;;;737554;186;918739;-67
2021/04/26 10:13:34;;;;;;;5.30;2.07;;;;;;;;;;747618;186;919516;-66
2021/04/26 10:16:01;;;;;;;5.23;2.43;;;;;;;;;;716633;190;920907;-68
2021/04/26 10:18:28;;;;;;;5.25;2.10;;;;;;;;;;745565;185;919402;-67
2021/04/26 10:20:54;;;;;;;2.70;1.93;;;;;;;;;;733909;189;919497;-67
2021/04/26 10:23:37;;;;;;;8.17;2.83;;;;;;;;;;741526;189;979236;-68
2021/04/26 10:26:02;;;;;;;3.53;1.93;;;;;;;;;;744182;185;918789;-67
2021/04/26 10:28:33;;;;;;;3.50;2.43;;;;;;;;;;739110;186;1212074;-68
2021/04/26 10:31:01;;;;;;;5.30;2.50;;;;;;;;;;744667;186;1224185;-68
2021/04/26 10:33:26;;;;;;;6.17;2.40;;;;;;;;;;758421;182;919338;-69
2021/04/26 10:35:52;;;;;;;4.50;2.43;;;;;;;;;;751286;182;919598;-68
2021/04/26 10:38:43;;;;;;;6.43;2.20;;;;;;;;;;752094;182;897740;-69
2021/04/26 10:41:05;;;;;;;4.97;2.90;;;;;;;;;;754421;184;1021100;-68
2021/04/26 10:43:31;;;;;;;5.62;2.10;;;;;;;;;;753895;182;918875;-68
2021/04/26 10:46:02;;;;;;;4.30;2.40;;;;;;;;;;757647;182;919419;-68
2021/04/26 10:48:28;;;;;;;8.20;2.30;;;;;;;;;;754529;183;1003328;-68
2021/04/26 10:50:54;;;;;;;3.07;1.87;;;;;;;;;;760807;182;918576;-68
2021/04/26 10:53:20;;;;;;;3.90;2.20;;;;;;;;;;743834;185;919253;-67
2021/04/26 10:55:46;;;;;;;4.60;2.90;;;;;;;;;;738047;186;881502;-68
2021/04/26 10:58:18;;;;;;;3.57;1.93;;;;;;;;;;744559;186;901860;-68
2021/04/26 11:00:43;;;;;;;3.20;2.00;;;;;;;;;;740941;186;1021829;-68
2021/04/26 11:03:26;;;;;;;7.03;2.87;;;;;;;;;;741458;186;918564;-69
2021/04/26 11:05:52;;;;;;;4.20;2.53;;;;;;;;;;749686;182;982769;-68
2021/04/26 11:08:23;;;;;;;3.27;2.20;;;;;;;;;;753920;182;919069;-67
2021/04/26 11:10:52;;;;;;;5.83;2.07;;;;;;;;;;751901;181;926718;-68
2021/04/26 11:13:21;;;;;;;3.67;2.10;;;;;;;;;;752511;183;919096;-68
2021/04/26 11:15:47;;;;;;;4.57;2.43;;;;;;;;;;757657;182;919500;-69
2021/04/26 11:18:13;;;;;;;3.70;2.27;;;;;;;;;;752432;181;919581;-70
2021/04/26 11:20:39;;;;;;;4.30;2.90;;;;;;;;;;751108;183;919886;-68
2021/04/26 11:23:04;;;;;;;5.77;2.37;;;;;;;;;;760802;182;912470;-65
2021/04/26 11:25:34;;;;;;;6.50;2.57;;;;;;;;;;750038;182;921206;-69
2021/04/26 11:28:00;;;;;;;4.47;2.07;;;;;;;;;;746019;182;919352;-69
2021/04/26 11:30:26;;;;;;;9.10;2.50;;;;;;;;;;755110;182;918535;-68
2021/04/26 11:32:54;;;;;;;3.50;1.90;;;;;;;;;;763124;182;919287;-69
2021/04/26 11:35:20;;;;;;;3.30;2.23;;;;;;;;;;752679;182;1479497;-68
2021/04/26 11:37:46;;;;;;;5.20;2.70;;;;;;;;;;756345;182;917094;-69
2021/04/26 11:40:12;;;;;;;3.20;2.10;;;;;;;;;;759283;182;917270;-68
2021/04/26 11:42:38;;;;;;;3.23;2.23;;;;;;;;;;756970;182;919469;-68
2021/04/26 11:45:06;;;;;;;5.27;2.60;;;;;;;;;;754683;181;908759;-68
2021/04/26 11:47:32;;;;;;;5.80;2.13;;;;;;;;;;757649;181;919721;-68
2021/04/26 11:49:58;;;;;;;4.97;2.13;;;;;;;;;;755072;182;919103;-68
2021/04/26 11:52:24;;;;;;;6.20;2.97;;;;;;;;;;739272;186;919593;-68
2021/04/26 11:54:50;;;;;;;3.77;2.30;;;;;;;;;;745934;181;1021830;-69
2021/04/26 11:57:19;;;;;;;3.27;2.20;;;;;;;;;;761166;182;919413;-68
2021/04/26 11:59:48;;;;;;;3.40;1.95;;;;;;;;;;757782;182;919244;-67
2021/04/26 12:02:14;;;;;;;4.43;1.83;;;;;;;;;;756259;182;922709;-68
2021/04/26 12:04:40;;;;;;;4.22;2.55;;;;;;;;;;756554;182;919570;-67
2021/04/26 12:07:06;;;;;;;3.87;2.07;;;;;;;;;;759382;181;917192;-70
2021/04/26 12:09:32;;;;;;;4.07;1.92;;;;;;;;;;756750;182;938292;-68
2021/04/26 12:11:57;;;;;;;4.40;2.23;;;;;;;;;;752522;182;1021616;-68
2021/04/26 12:14:24;;;;;;;8.00;2.53;;;;;;;;;;759732;182;918723;-68
2021/04/26 12:16:50;;;;;;;6.60;2.50;;;;;;;;;;749215;182;919642;-69
2021/04/26 12:19:16;;;;;;;3.50;2.13;;;;;;;;;;754111;183;919098;-68
2021/04/26 12:21:42;;;;;;;4.10;2.20;;;;;;;;;;753938;182;972605;-67
2021/04/26 12:24:08;;;;;;;3.60;2.10;;;;;;;;;;755456;184;918786;-68
2021/04/26 12:26:34;;;;;;;3.57;1.97;;;;;;;;;;742910;185;926401;-68
2021/04/26 12:29:00;;;;;;;5.43;2.50;;;;;;;;;;744478;185;919271;-67
2021/04/26 12:31:27;;;;;;;6.87;2.93;;;;;;;;;;742606;186;919550;-67
2021/04/26 12:33:52;;;;;;;4.57;2.37;;;;;;;;;;735458;190;919308;-69
2021/04/26 12:36:21;;;;;;;5.17;2.10;;;;;;;;;;744195;185;919836;-68
2021/04/26 12:38:47;;;;;;;3.60;2.17;;;;;;;;;;747951;185;918629;-68
2021/04/26 12:41:13;;;;;;;3.10;1.87;;;;;;;;;;749501;184;919491;-68
2021/04/26 12:43:39;;;;;;;3.10;2.10;;;;;;;;;;754346;182;1073919;-68
2021/04/26 12:46:05;;;;;;;3.40;2.47;;;;;;;;;;756596;182;918696;-68
2021/04/26 12:48:31;;;;;;;5.80;2.77;;;;;;;;;;760211;182;919328;-69
2021/04/26 12:50:57;;;;;;;4.70;2.53;;;;;;;;;;757830;182;936516;-69
2021/04/26 12:53:41;;;;;;;3.30;2.00;;;;;;;;;;752949;182;919222;-68
2021/04/26 12:56:11;;;;;;;3.60;2.27;;;;;;;;;;757315;182;918359;-68
2021/04/26 12:58:40;;;;;;;4.07;2.10;;;;;;;;;;755694;182;918185;-70
2021/04/26 13:01:22;;;;;;;3.60;2.13;;;;;;;;;;760381;181;925558;-68
2021/04/26 13:03:56;;;;;;;8.53;2.33;;;;;;;;;;740672;185;1024793;-68
2021/04/26 13:06:26;;;;;;;3.73;2.53;;;;;;;;;;761793;182;921285;-68
2021/04/26 13:08:54;;;;;;;5.45;2.35;;;;;;;;;;754401;182;922003;-69
2021/04/26 13:11:25;;;;;;;3.40;2.60;;;;;;;;;;753748;182;919549;-71
2021/04/26 13:13:51;;;;;;;4.20;2.00;;;;;;;;;;749918;181;918074;-69
2021/04/26 13:16:17;;;;;;;4.70;2.63;;;;;;;;;;745236;185;919189;-68
2021/04/26 13:18:44;;;;;;;7.50;2.65;;;;;;;;;;738557;186;918707;-69
2021/04/26 13:21:10;;;;;;;5.40;2.70;;;;;;;;;;743188;186;917365;-69
2021/04/26 13:23:36;;;;;;;4.00;2.50;;;;;;;;;;748288;182;917369;-69
2021/04/26 13:26:02;;;;;;;3.87;2.43;;;;;;;;;;753748;182;919475;-69
2021/04/26 13:28:28;;;;;;;3.83;2.03;;;;;;;;;;756693;181;1022021;-71
2021/04/26 13:30:54;;;;;;;4.80;2.50;;;;;;;;;;748776;183;919942;-70
2021/04/26 13:33:20;;;;;;;4.10;2.40;;;;;;;;;;743896;185;917520;-68
2021/04/26 13:35:47;;;;;;;6.00;2.70;;;;;;;;;;735214;186;919483;-71
2021/04/26 13:38:12;;;;;;;9.80;3.03;;;;;;;;;;749810;185;936038;-68
2021/04/26 13:40:38;;;;;;;3.50;2.50;;;;;;;;;;739073;185;918716;-68
2021/04/26 13:43:04;;;;;;;3.67;2.30;;;;;;;;;;745720;185;919459;-71
2021/04/26 13:45:30;;;;;;;4.70;2.10;;;;;;;;;;747311;186;919198;-69
2021/04/26 13:47:56;;;;;;;6.15;2.95;;;;;;;;;;741747;185;948338;-69
2021/04/26 13:50:21;;;;;;;5.93;3.35;;;;;;;;;;740551;185;918061;-69
2021/04/26 13:52:47;;;;;;;6.83;2.80;;;;;;;;;;747842;185;918201;-67
2021/04/26 13:55:13;;;;;;;3.90;2.70;;;;;;;;;;751628;182;938505;-69
2021/04/26 13:57:39;;;;;;;6.60;3.33;;;;;;;;;;743946;185;919050;-68
2021/04/26 14:00:08;;;;;;;3.90;2.63;;;;;;;;;;745523;185;919656;-69
2021/04/26 14:02:33;;;;;;;6.53;2.80;;;;;;;;;;745564;186;917033;-68
2021/04/26 14:04:59;;;;;;;4.43;2.73;;;;;;;;;;755572;182;919464;-68
2021/04/26 14:07:25;;;;;;;6.70;2.90;;;;;;;;;;735752;186;920459;-69
2021/04/26 14:09:52;;;;;;;4.93;2.60;;;;;;;;;;751850;185;918532;-70
2021/04/26 14:12:17;;;;;;;7.22;5.95;;;;;;;;;;748227;182;2305800;-67
2021/04/26 14:14:46;;;;;;;4.00;2.57;;;;;;;;;;755196;182;933430;-69
2021/04/26 14:17:08;;;;;;;5.80;3.00;;;;;;;;;;752928;182;919778;-68
2021/04/26 14:19:34;;;;;;;3.40;2.10;;;;;;;;;;755928;184;919391;-69